Time;durP1;ratioP1;P1;durP2;ratioP2;P2;SDS_P1;SDS_P2;PMS_P1;PMS_P2;Temp;Humidity;BMP_temperature;BMP_pressure;BME280_temperature;BME280_humidity;BME280_pressure;Samples;Min_cycle;Max_cycle;Signal;HPM_P1;HPM_P2
2022/10/21 00:00:28;;;;;;;17.17;13.73;;;;;;;14.64;84.33;100731.44;5031919;28;20033;-71
2022/10/21 00:02:53;;;;;;;15.80;13.05;;;;;;;14.64;84.80;100737.03;5032235;28;20384;-71
2022/10/21 00:05:19;;;;;;;19.60;13.93;;;;;;;14.64;85.06;100731.44;5032273;28;20477;-70
2022/10/21 00:07:44;;;;;;;18.35;14.25;;;;;;;14.60;84.37;100719.16;5027624;28;20030;-71
2022/10/21 00:10:10;;;;;;;16.95;13.35;;;;;;;14.58;84.29;100716.66;5032195;28;20085;-71
2022/10/21 00:12:36;;;;;;;15.75;12.13;;;;;;;14.55;83.65;100716.38;5032602;28;20044;-71
2022/10/21 00:15:04;;;;;;;18.80;13.02;;;;;;;14.52;84.00;100723.38;5019411;28;20492;-69
2022/10/21 00:17:34;;;;;;;15.90;12.32;;;;;;;14.50;84.00;100725.59;5029789;28;20477;-71
2022/10/21 00:19:59;;;;;;;15.73;12.10;;;;;;;14.49;83.47;100724.75;5030056;28;20025;-72
2022/10/21 00:22:25;;;;;;;15.98;12.65;;;;;;;14.47;83.43;100721.41;5031925;28;20030;-71
2022/10/21 00:24:50;;;;;;;15.35;12.07;;;;;;;14.46;83.28;100702.97;5032030;28;20025;-72
2022/10/21 00:27:15;;;;;;;14.48;11.25;;;;;;;14.45;83.17;100706.03;5031549;28;20385;-72
2022/10/21 00:29:40;;;;;;;15.05;12.40;;;;;;;14.43;83.17;100697.94;5031524;28;20116;-72
2022/10/21 00:32:06;;;;;;;16.42;13.82;;;;;;;14.43;83.57;100694.31;5031467;28;20389;-72
2022/10/21 00:34:32;;;;;;;18.15;13.77;;;;;;;14.42;84.15;100696.28;5031302;28;20094;-72
2022/10/21 00:36:57;;;;;;;18.77;13.38;;;;;;;14.41;83.78;100700.16;5031784;28;20026;-73
2022/10/21 00:39:22;;;;;;;17.52;13.88;;;;;;;14.39;83.54;100701.59;5031826;28;20032;-72
2022/10/21 00:41:48;;;;;;;14.95;13.45;;;;;;;14.39;83.59;100694.06;5031733;28;20036;-72
2022/10/21 00:44:14;;;;;;;17.88;13.75;;;;;;;14.41;83.83;100700.16;5028345;28;20060;-72
2022/10/21 00:46:46;;;;;;;16.90;14.02;;;;;;;14.43;84.36;100703.53;5030784;28;20021;-72
2022/10/21 00:49:36;;;;;;;20.98;14.20;;;;;;;14.45;84.09;100708.81;5032543;28;20045;-72
2022/10/21 00:52:03;;;;;;;19.25;14.85;;;;;;;14.43;84.55;100703.53;5032295;28;20037;-72
2022/10/21 00:54:30;;;;;;;22.25;14.73;;;;;;;14.45;84.78;100708.81;5030705;28;20033;-72
2022/10/21 00:56:56;;;;;;;17.25;14.40;;;;;;;14.44;84.94;100696.81;5031316;28;20033;-72
2022/10/21 00:59:25;;;;;;;17.60;14.90;;;;;;;14.47;85.35;100689.84;5031378;28;20040;-72
2022/10/21 01:01:51;;;;;;;20.15;14.98;;;;;;;14.46;84.92;100686.22;5030579;28;20484;-72
2022/10/21 01:04:16;;;;;;;22.20;15.13;;;;;;;14.46;84.74;100686.22;5029294;28;20097;-72
2022/10/21 01:06:42;;;;;;;19.50;14.52;;;;;;;14.45;84.56;100678.09;5029938;28;20040;-71
2022/10/21 01:09:07;;;;;;;16.30;13.85;;;;;;;14.43;84.18;100667.22;5031980;28;20073;-72
2022/10/21 01:11:43;;;;;;;23.50;14.85;;;;;;;14.46;84.31;100672.25;5030473;28;20022;-71
2022/10/21 01:14:29;;;;;;;17.13;13.65;;;;;;;14.46;84.39;100672.25;5029903;28;20025;-72
2022/10/21 01:17:19;;;;;;;21.05;14.80;;;;;;;14.45;83.98;100670.56;5031143;28;20798;-72
2022/10/21 01:19:59;;;;;;;15.18;13.55;;;;;;;14.41;84.00;100665.81;5031637;28;20032;-72
2022/10/21 01:23:06;;;;;;;15.43;12.73;;;;;;;14.41;84.07;100666.66;5016175;28;20041;-72
2022/10/21 01:26:09;;;;;;;22.42;13.88;;;;;;;14.43;84.39;100649.63;5006332;28;20041;-72
2022/10/21 01:29:10;;;;;;;16.77;12.63;;;;;;;14.41;84.03;100651.88;5022467;28;20084;-72
2022/10/21 01:32:06;;;;;;;18.88;12.57;;;;;;;14.38;83.63;100647.72;5030057;28;20037;-72
2022/10/21 01:34:37;;;;;;;13.18;11.75;;;;;;;14.35;83.14;100645.47;5011712;28;20038;-72
2022/10/21 01:38:01;;;;;;;14.07;11.45;;;;;;;14.38;83.29;100642.13;5012661;28;20030;-72
2022/10/21 01:40:34;;;;;;;17.65;12.30;;;;;;;14.29;83.33;100632.63;4996840;28;20045;-72
2022/10/21 01:43:15;;;;;;;16.63;12.25;;;;;;;14.29;83.24;100629.00;5019702;28;20171;-72
2022/10/21 01:45:59;;;;;;;16.10;11.63;;;;;;;14.28;82.96;100627.34;5031742;28;20037;-72
2022/10/21 01:48:30;;;;;;;16.33;11.52;;;;;;;14.23;82.66;100629.03;5026224;28;20041;-72
2022/10/21 01:50:59;;;;;;;15.55;11.77;;;;;;;14.21;82.39;100624.84;5031075;28;20033;-72
2022/10/21 01:53:28;;;;;;;15.48;10.82;;;;;;;14.21;82.56;100622.88;5031641;28;20053;-73
2022/10/21 01:55:56;;;;;;;15.43;12.00;;;;;;;14.20;82.92;100612.00;5030903;28;20139;-73
2022/10/21 01:58:25;;;;;;;13.55;11.80;;;;;;;14.21;83.09;100620.09;5029820;28;20163;-73
2022/10/21 02:00:54;;;;;;;17.30;12.07;;;;;;;14.18;82.42;100617.03;5031164;28;20116;-73
2022/10/21 02:03:28;;;;;;;14.70;11.00;;;;;;;14.17;82.30;100612.56;5029766;28;20025;-73
2022/10/21 02:05:54;;;;;;;16.55;10.65;;;;;;;14.12;81.95;100605.06;5031709;28;20017;-72
2022/10/21 02:08:19;;;;;;;15.13;10.95;;;;;;;14.12;81.97;100609.81;5029815;28;20106;-72
2022/10/21 02:10:48;;;;;;;11.98;10.80;;;;;;;14.09;81.89;100607.56;5028838;28;20124;-73
2022/10/21 02:13:19;;;;;;;12.85;11.20;;;;;;;14.05;81.79;100603.66;5025651;28;20121;-73
2022/10/21 02:15:45;;;;;;;13.93;10.70;;;;;;;14.02;81.21;100598.66;5014974;28;20080;-73
2022/10/21 02:18:23;;;;;;;13.55;10.38;;;;;;;14.05;81.56;100589.72;5012642;28;20034;-72
2022/10/21 02:20:54;;;;;;;12.85;10.05;;;;;;;13.99;81.60;100577.75;5029575;28;20032;-72
2022/10/21 02:23:30;;;;;;;13.80;10.37;;;;;;;13.98;81.56;100587.22;5030824;28;20021;-73
2022/10/21 02:25:56;;;;;;;17.88;10.27;;;;;;;13.95;81.32;100593.34;5028813;28;20029;-73
2022/10/21 02:28:21;;;;;;;14.45;10.30;;;;;;;13.97;81.34;100577.19;5030357;28;20052;-73
2022/10/21 02:31:15;;;;;;;17.63;10.82;;;;;;;13.99;81.83;100589.75;5029428;28;20028;-72
2022/10/21 02:33:59;;;;;;;14.45;10.90;;;;;;;13.94;81.43;100594.47;5030069;28;20040;-73
2022/10/21 02:36:50;;;;;;;12.98;10.05;;;;;;;13.93;81.11;100599.22;5031403;28;20465;-73
2022/10/21 02:39:44;;;;;;;14.10;10.23;;;;;;;13.91;81.37;100595.91;5026617;28;20144;-72
2022/10/21 02:42:13;;;;;;;15.75;10.63;;;;;;;13.90;81.23;100594.19;5030285;28;20560;-73
2022/10/21 02:44:38;;;;;;;14.98;11.07;;;;;;;13.92;81.68;100593.94;5028606;28;20045;-73
2022/10/21 02:47:04;;;;;;;22.23;11.15;;;;;;;13.89;81.64;100592.53;5029116;28;20022;-73
2022/10/21 02:49:29;;;;;;;11.07;9.95;;;;;;;13.89;81.24;100580.53;5030850;28;20103;-72
2022/10/21 02:51:54;;;;;;;11.90;10.50;;;;;;;13.89;81.32;100586.97;5030475;28;20116;-73
2022/10/21 02:54:23;;;;;;;12.68;10.18;;;;;;;13.91;81.80;100573.56;5028760;28;20034;-73
2022/10/21 02:56:48;;;;;;;12.85;10.50;;;;;;;13.90;81.36;100577.47;5030510;28;20460;-72
2022/10/21 02:59:13;;;;;;;12.05;10.10;;;;;;;13.89;81.19;100573.00;5030268;28;20097;-73
2022/10/21 03:01:39;;;;;;;17.45;11.27;;;;;;;13.91;82.21;100576.38;5057133;28;20064;-71
2022/10/21 03:04:04;;;;;;;14.75;10.93;;;;;;;13.90;81.75;100571.88;5034625;28;20031;-72
2022/10/21 03:06:29;;;;;;;17.48;10.25;;;;;;;13.87;81.34;100569.69;5033715;28;20029;-72
2022/10/21 03:08:54;;;;;;;11.57;10.38;;;;;;;13.87;81.11;100574.41;5034545;28;20037;-72
2022/10/21 03:11:20;;;;;;;12.07;9.68;;;;;;;13.85;81.41;100579.44;5031071;28;20025;-72
2022/10/21 03:13:45;;;;;;;13.98;9.98;;;;;;;13.83;81.42;100567.72;5032954;28;20029;-72
2022/10/21 03:16:10;;;;;;;13.90;10.43;;;;;;;13.82;80.97;100572.47;5022529;28;20562;-72
2022/10/21 03:18:36;;;;;;;12.65;10.27;;;;;;;13.81;81.04;100569.97;5026454;28;20037;-71
2022/10/21 03:21:01;;;;;;;13.38;10.23;;;;;;;13.79;80.97;100573.00;5032894;28;20083;-71
2022/10/21 03:23:26;;;;;;;10.73;9.68;;;;;;;13.75;80.98;100569.97;5033633;28;20388;-72
2022/10/21 03:25:51;;;;;;;12.20;9.27;;;;;;;13.75;80.80;100580.28;5033688;28;20051;-72
2022/10/21 03:28:17;;;;;;;13.75;9.40;;;;;;;13.75;81.16;100585.84;5031627;28;20490;-71
2022/10/21 03:30:42;;;;;;;16.90;9.73;;;;;;;13.74;81.05;100579.44;5029594;28;20033;-72
2022/10/21 03:33:07;;;;;;;11.15;9.32;;;;;;;13.79;81.56;100575.81;5034414;28;20032;-72
2022/10/21 03:35:33;;;;;;;15.65;9.35;;;;;;;13.75;81.00;100577.47;5034129;28;20040;-72
2022/10/21 03:37:58;;;;;;;14.88;10.10;;;;;;;13.77;81.25;100575.25;5030623;28;20404;-72
2022/10/21 03:40:28;;;;;;;12.23;10.05;;;;;;;13.76;81.33;100568.03;5033367;28;20017;-72
2022/10/21 03:42:54;;;;;;;14.52;10.15;;;;;;;13.75;81.90;100564.41;5031429;28;20052;-71
2022/10/21 03:45:19;;;;;;;11.73;9.57;;;;;;;13.74;81.91;100565.50;5032190;28;20064;-71
2022/10/21 03:47:45;;;;;;;13.90;9.52;;;;;;;13.76;81.75;100565.22;5032366;28;20033;-72
2022/10/21 03:50:11;;;;;;;16.58;9.27;;;;;;;13.78;81.40;100557.41;5022115;28;20030;-72
2022/10/21 03:52:36;;;;;;;12.55;9.38;;;;;;;13.77;80.98;100558.53;5014174;28;20040;-72
2022/10/21 03:55:01;;;;;;;17.83;9.48;;;;;;;13.78;82.31;100562.16;5030547;28;20033;-72
2022/10/21 03:57:27;;;;;;;10.85;8.82;;;;;;;13.75;81.23;100560.75;5029267;28;20048;-72
2022/10/21 03:59:52;;;;;;;12.27;8.65;;;;;;;13.77;80.95;100561.31;5033251;28;20567;-71
2022/10/21 04:02:17;;;;;;;12.20;9.07;;;;;;;13.75;81.53;100557.97;5031252;28;20034;-72
2022/10/21 04:04:42;;;;;;;11.23;8.73;;;;;;;13.76;81.28;100559.66;5028715;28;20473;-71
2022/10/21 04:07:08;;;;;;;10.05;8.13;;;;;;;13.74;81.55;100561.88;5030414;28;20072;-71
2022/10/21 04:09:33;;;;;;;10.40;8.07;;;;;;;13.74;80.67;100559.09;5032521;28;20026;-72
2022/10/21 04:11:59;;;;;;;14.82;8.57;;;;;;;13.73;80.78;100565.78;5030715;28;20362;-72
2022/10/21 04:14:24;;;;;;;13.85;7.70;;;;;;;13.72;80.42;100564.13;5033314;28;20048;-71
2022/10/21 04:16:49;;;;;;;8.88;7.97;;;;;;;13.70;80.85;100566.34;5031509;28;20041;-72
2022/10/21 04:19:17;;;;;;;12.27;7.70;;;;;;;13.64;80.50;100567.47;5032262;28;20087;-71
2022/10/21 04:21:42;;;;;;;11.95;7.60;;;;;;;13.65;81.03;100564.41;5033682;28;20026;-71
2022/10/21 04:24:08;;;;;;;10.88;7.13;;;;;;;13.63;80.81;100563.00;5032350;28;20033;-71
2022/10/21 04:26:33;;;;;;;11.13;7.20;;;;;;;13.64;80.54;100559.13;5028369;28;20030;-71
2022/10/21 04:28:58;;;;;;;9.68;7.35;;;;;;;13.61;80.38;100554.09;5013062;28;20034;-72
2022/10/21 04:31:24;;;;;;;10.80;6.93;;;;;;;13.59;80.37;100564.69;5023243;28;20025;-72
2022/10/21 04:33:50;;;;;;;10.18;6.47;;;;;;;13.59;79.87;100571.09;5032065;28;20549;-72
2022/10/21 04:36:16;;;;;;;11.55;6.90;;;;;;;13.54;80.29;100573.88;5032014;28;20091;-73
2022/10/21 04:38:41;;;;;;;7.78;6.28;;;;;;;13.56;81.67;100571.66;5031164;28;20469;-71
2022/10/21 04:41:06;;;;;;;9.23;6.20;;;;;;;13.53;80.55;100576.97;5030835;28;20075;-71
2022/10/21 04:43:32;;;;;;;7.50;6.10;;;;;;;13.56;80.59;100571.66;5032646;28;20507;-71
2022/10/21 04:45:57;;;;;;;7.50;5.90;;;;;;;13.53;80.34;100576.97;5031980;28;20026;-71
2022/10/21 04:48:23;;;;;;;9.68;5.35;;;;;;;13.52;80.80;100576.13;5031879;28;20487;-71
2022/10/21 04:50:50;;;;;;;9.90;5.47;;;;;;;13.53;81.48;100579.75;5032689;28;20108;-72
2022/10/21 04:53:15;;;;;;;13.18;6.30;;;;;;;13.56;82.23;100570.81;5031510;28;20496;-71
2022/10/21 04:55:41;;;;;;;9.07;5.88;;;;;;;13.61;82.39;100562.47;5025460;28;20040;-71
2022/10/21 04:58:06;;;;;;;6.38;5.05;;;;;;;13.60;81.96;100566.38;5030079;28;20036;-71
2022/10/21 05:00:31;;;;;;;11.18;5.70;;;;;;;13.63;82.20;100565.78;5016326;28;20184;-72
2022/10/21 05:02:57;;;;;;;7.10;5.25;;;;;;;13.61;82.48;100562.47;5024480;28;20025;-72
2022/10/21 05:05:22;;;;;;;8.15;4.95;;;;;;;13.59;82.42;100559.94;5030590;28;20033;-72
2022/10/21 05:07:48;;;;;;;10.18;5.05;;;;;;;13.62;82.63;100559.38;5022554;28;20052;-72
2022/10/21 05:10:13;;;;;;;7.32;5.30;;;;;;;13.62;83.05;100564.97;5031126;28;20038;-71
2022/10/21 05:12:38;;;;;;;7.05;4.93;;;;;;;13.64;82.52;100561.91;5028909;28;20896;-72
2022/10/21 05:15:04;;;;;;;8.25;4.72;;;;;;;13.66;82.92;100565.22;5029289;28;20038;-71
2022/10/21 05:17:29;;;;;;;7.72;5.10;;;;;;;13.68;82.79;100557.44;5028591;28;20029;-72
2022/10/21 05:19:55;;;;;;;11.05;4.57;;;;;;;13.67;82.88;100558.53;5027543;28;20033;-72
2022/10/21 05:22:20;;;;;;;9.25;4.80;;;;;;;13.67;82.38;100555.75;5022110;28;20026;-72
2022/10/21 05:24:45;;;;;;;9.02;4.82;;;;;;;13.63;82.22;100549.06;5028887;28;20049;-73
2022/10/21 05:27:11;;;;;;;8.65;4.53;;;;;;;13.61;82.15;100552.13;5019150;28;20034;-72
2022/10/21 05:29:36;;;;;;;9.80;4.38;;;;;;;13.62;82.11;100556.59;5022553;28;20026;-72
2022/10/21 05:32:01;;;;;;;9.57;4.65;;;;;;;13.63;81.66;100541.53;5018046;28;20103;-72
2022/10/21 05:34:27;;;;;;;11.32;4.72;;;;;;;13.62;81.55;100541.81;5012417;28;20032;-71
2022/10/21 05:36:52;;;;;;;9.02;4.65;;;;;;;13.62;81.86;100541.81;5026884;28;20022;-73
2022/10/21 05:39:17;;;;;;;10.90;5.13;;;;;;;13.62;82.17;100530.66;5018917;28;20033;-71
2022/10/21 05:41:42;;;;;;;10.77;4.97;;;;;;;13.60;82.17;100521.75;5031165;28;20025;-73
2022/10/21 05:44:08;;;;;;;7.65;5.00;;;;;;;13.59;81.96;100526.47;5031315;28;20116;-73
2022/10/21 05:46:33;;;;;;;9.55;5.07;;;;;;;13.62;82.33;100539.84;5030944;28;20415;-74
2022/10/21 05:48:58;;;;;;;9.43;4.40;;;;;;;13.57;81.54;100533.47;5027405;28;20037;-73
2022/10/21 05:51:25;;;;;;;10.55;4.75;;;;;;;13.54;81.21;100532.06;5031337;28;20033;-75
2022/10/21 05:53:54;;;;;;;7.20;5.22;;;;;;;13.53;81.36;100516.47;5031301;28;20055;-75
2022/10/21 05:56:20;;;;;;;9.35;4.55;;;;;;;13.52;80.73;100520.38;5030279;28;20056;-72
2022/10/21 05:58:45;;;;;;;7.05;4.13;;;;;;;13.51;80.94;100513.94;5031745;28;20385;-74
2022/10/21 06:01:10;;;;;;;10.15;4.45;;;;;;;13.50;80.91;100536.53;5025098;28;20033;-73
2022/10/21 06:03:36;;;;;;;7.53;4.10;;;;;;;13.49;81.17;100524.53;5026475;28;20025;-72
2022/10/21 06:06:04;;;;;;;6.80;4.63;;;;;;;13.49;80.86;100530.13;5027843;28;20036;-68
2022/10/21 06:08:31;;;;;;;6.07;4.10;;;;;;;13.48;80.95;100536.81;5023191;28;20508;-69
2022/10/21 06:11:04;;;;;;;7.18;4.40;;;;;;;13.49;80.92;100534.88;5025309;28;20033;-69
2022/10/21 06:13:30;;;;;;;9.32;4.40;;;;;;;13.46;81.13;100527.06;5023847;28;20032;-71
2022/10/21 06:15:56;;;;;;;6.85;3.95;;;;;;;13.42;80.70;100526.78;5027765;28;20049;-71
2022/10/21 06:18:22;;;;;;;4.68;3.72;;;;;;;13.43;80.81;100527.59;5020438;28;20038;-73
2022/10/21 06:20:47;;;;;;;6.53;4.10;;;;;;;13.41;80.76;100525.13;5015134;28;20022;-72
2022/10/21 06:23:15;;;;;;;5.93;4.18;;;;;;;13.41;80.69;100515.91;5023197;28;20542;-72
2022/10/21 06:25:40;;;;;;;7.32;4.47;;;;;;;13.39;81.13;100518.97;5020185;28;20053;-72
2022/10/21 06:28:06;;;;;;;8.93;4.07;;;;;;;13.39;80.82;100521.75;5015946;28;20794;-73
2022/10/21 06:30:31;;;;;;;7.38;4.10;;;;;;;13.40;80.71;100529.03;5027999;28;20392;-72
2022/10/21 06:32:56;;;;;;;4.85;3.97;;;;;;;13.39;80.73;100521.75;5024470;28;20033;-71
2022/10/21 06:35:21;;;;;;;13.68;4.47;;;;;;;13.66;83.29;100515.88;5031527;28;20048;-72
2022/10/21 06:37:47;;;;;;;4.88;3.88;;;;;;;13.65;81.09;100524.53;5028323;28;20595;-68
2022/10/21 06:40:12;;;;;;;4.88;3.85;;;;;;;13.65;80.40;100530.94;5024403;28;20030;-70
2022/10/21 06:42:37;;;;;;;7.32;4.03;;;;;;;13.61;80.31;100534.56;5023848;28;20734;-64
2022/10/21 06:45:03;;;;;;;7.63;3.92;;;;;;;13.64;80.51;100537.63;5017058;28;20120;-67
2022/10/21 06:47:28;;;;;;;6.05;3.35;;;;;;;13.58;81.20;100540.72;5018204;28;20384;-71
2022/10/21 06:49:54;;;;;;;8.65;3.60;;;;;;;13.61;81.66;100549.34;5028004;28;20480;-69
2022/10/21 06:52:19;;;;;;;9.48;3.72;;;;;;;13.59;81.93;100553.53;5027697;28;20040;-69
2022/10/21 06:54:44;;;;;;;11.35;3.90;;;;;;;13.59;81.97;100556.31;5033483;28;20100;-69
2022/10/21 06:57:09;;;;;;;7.38;3.28;;;;;;;13.62;82.21;100564.13;5030513;28;20067;-67
2022/10/21 06:59:35;;;;;;;8.55;3.47;;;;;;;13.64;82.48;100562.75;5028610;28;20030;-75
2022/10/21 07:02:00;;;;;;;8.70;3.20;;;;;;;13.66;82.91;100571.66;5022011;28;20043;-64
2022/10/21 07:04:25;;;;;;;5.85;3.45;;;;;;;13.67;82.70;100580.84;5031087;28;20055;-73
2022/10/21 07:06:51;;;;;;;6.05;3.55;;;;;;;13.72;82.79;100578.06;5033436;28;20029;-71
2022/10/21 07:09:16;;;;;;;8.45;3.22;;;;;;;13.72;82.76;100581.69;5032288;28;20026;-72
2022/10/21 07:11:42;;;;;;;8.05;3.10;;;;;;;13.73;83.33;100588.94;5033706;28;20104;-71
2022/10/21 07:14:07;;;;;;;9.45;3.47;;;;;;;13.75;83.12;100585.84;5022113;28;20029;-70
2022/10/21 07:16:34;;;;;;;6.82;3.28;;;;;;;13.78;83.18;100599.25;5030434;28;20369;-72
2022/10/21 07:18:59;;;;;;;5.95;3.00;;;;;;;13.79;83.25;100598.13;5032344;28;20026;-73
2022/10/21 07:21:27;;;;;;;6.80;3.40;;;;;;;13.78;83.62;100588.09;5032701;28;20039;-69
2022/10/21 07:23:54;;;;;;;9.00;3.30;;;;;;;13.80;83.13;100591.44;5032148;28;20095;-71
2022/10/21 07:26:21;;;;;;;5.85;3.10;;;;;;;13.82;83.22;100593.94;5032591;28;20049;-69
2022/10/21 07:28:46;;;;;;;5.47;3.13;;;;;;;13.82;83.79;100591.16;5022207;28;20049;-70
2022/10/21 07:31:14;;;;;;;4.53;2.90;;;;;;;13.82;83.28;100597.56;5017603;28;20029;-67
2022/10/21 07:33:40;;;;;;;8.73;3.45;;;;;;;13.83;83.68;100593.66;5029951;28;20025;-67
2022/10/21 07:36:12;;;;;;;7.60;3.90;;;;;;;13.88;83.96;100598.41;5032156;28;20361;-66
2022/10/21 07:38:38;;;;;;;8.88;3.78;;;;;;;13.88;83.68;100602.03;5032382;28;20060;-67
2022/10/21 07:41:05;;;;;;;11.07;4.05;;;;;;;13.89;84.04;100602.88;5031348;28;20030;-67
2022/10/21 07:43:30;;;;;;;5.78;3.83;;;;;;;13.91;83.93;100609.84;5029904;28;20037;-67
2022/10/21 07:45:59;;;;;;;9.45;3.70;;;;;;;13.94;84.12;100612.06;5031102;28;20033;-68
2022/10/21 07:48:25;;;;;;;9.80;3.83;;;;;;;13.91;84.17;100609.84;5029935;28;20072;-68
2022/10/21 07:50:50;;;;;;;6.00;3.50;;;;;;;13.96;84.09;100609.00;5030745;28;20033;-69
2022/10/21 07:53:16;;;;;;;9.13;3.88;;;;;;;13.96;84.01;100618.19;5016358;28;20500;-68
2022/10/21 07:55:42;;;;;;;10.00;3.88;;;;;;;13.98;83.81;100615.94;5016247;28;20030;-68
2022/10/21 07:58:07;;;;;;;9.15;3.95;;;;;;;13.99;84.28;100616.81;5012099;28;20814;-68
2022/10/21 08:00:32;;;;;;;11.13;4.55;;;;;;;13.99;84.46;100617.66;5013079;28;20477;-68
2022/10/21 08:03:00;;;;;;;6.85;3.78;;;;;;;14.03;84.25;100614.25;5014980;28;20031;-68
2022/10/21 08:05:26;;;;;;;6.00;4.35;;;;;;;14.03;84.38;100614.25;5028402;28;20026;-68
2022/10/21 08:07:51;;;;;;;6.90;4.18;;;;;;;14.03;84.41;100614.25;5018613;28;20026;-63
2022/10/21 08:10:19;;;;;;;9.35;4.32;;;;;;;14.06;84.45;100613.72;5030928;28;20706;-63
2022/10/21 08:12:44;;;;;;;10.07;4.60;;;;;;;14.05;84.58;100601.72;5027861;28;20133;-64
2022/10/21 08:15:10;;;;;;;11.23;4.70;;;;;;;14.06;84.73;100603.38;5029476;28;20124;-64
2022/10/21 08:17:35;;;;;;;9.35;4.65;;;;;;;14.07;84.63;100609.78;5019764;28;20714;-64
2022/10/21 08:20:01;;;;;;;8.57;4.15;;;;;;;14.06;84.94;100602.53;5030395;28;20053;-65
2022/10/21 08:22:26;;;;;;;13.48;5.00;;;;;;;14.08;84.92;100605.91;5028313;28;20017;-65
2022/10/21 08:24:51;;;;;;;10.88;4.80;;;;;;;14.07;84.94;100602.28;5027961;28;20061;-65
2022/10/21 08:27:17;;;;;;;10.30;4.55;;;;;;;14.06;84.88;100619.28;5029276;28;20108;-64
2022/10/21 08:29:42;;;;;;;11.00;5.35;;;;;;;14.06;85.22;100628.50;5029679;28;20026;-64
2022/10/21 08:32:07;;;;;;;7.20;4.88;;;;;;;14.08;84.75;100622.66;5027093;28;20487;-64
2022/10/21 08:34:32;;;;;;;13.63;5.88;;;;;;;14.08;85.26;100625.44;5027392;28;20744;-64
2022/10/21 08:36:58;;;;;;;11.52;5.38;;;;;;;14.09;85.26;100629.91;5027766;28;20041;-63
2022/10/21 08:39:26;;;;;;;8.68;5.35;;;;;;;14.08;85.50;100625.44;5030217;28;20040;-64
2022/10/21 08:42:09;;;;;;;10.00;5.43;;;;;;;14.08;85.23;100622.66;5028611;28;20072;-67
2022/10/21 08:44:47;;;;;;;11.20;5.85;;;;;;;14.10;85.62;100645.50;5024894;28;20034;-64
2022/10/21 08:47:33;;;;;;;12.40;5.72;;;;;;;14.08;85.61;100643.03;5030487;28;20057;-64
2022/10/21 08:50:18;;;;;;;10.32;5.40;;;;;;;14.10;85.53;100637.97;5021210;28;20048;-67
2022/10/21 08:52:48;;;;;;;12.98;5.47;;;;;;;14.09;85.79;100629.91;5027820;28;20049;-68
2022/10/21 08:55:23;;;;;;;9.43;5.05;;;;;;;14.10;85.93;100635.19;5029314;28;20103;-68
2022/10/21 08:57:49;;;;;;;11.10;5.50;;;;;;;14.11;85.67;100647.19;5027570;28;20036;-68
2022/10/21 09:00:16;;;;;;;10.15;5.20;;;;;;;14.13;86.02;100664.50;5026068;28;20477;-67
2022/10/21 09:02:42;;;;;;;9.95;5.47;;;;;;;14.14;86.17;100657.78;5028809;28;20033;-63
2022/10/21 09:05:41;;;;;;;10.32;5.30;;;;;;;14.18;86.00;100651.34;5027451;28;20044;-65
2022/10/21 09:08:35;;;;;;;6.97;4.60;;;;;;;14.18;86.56;100651.34;5026195;28;20083;-61
2022/10/21 09:11:19;;;;;;;5.38;4.03;;;;;;;14.19;86.98;100655.00;5022175;28;20037;-64
2022/10/21 09:14:30;;;;;;;7.57;4.32;;;;;;;14.20;87.07;100651.09;5024266;28;20099;-66
2022/10/21 09:17:17;;;;;;;11.13;4.60;;;;;;;14.21;87.31;100655.53;5029995;28;20060;-67
2022/10/21 09:20:20;;;;;;;9.23;4.28;;;;;;;14.23;86.99;100631.00;5027482;28;20049;-65
2022/10/21 09:22:51;;;;;;;8.95;4.50;;;;;;;14.22;87.61;100624.53;5014860;28;20126;-69
2022/10/21 09:25:28;;;;;;;6.75;2.88;;;;;;;14.23;87.89;100636.56;5028724;28;20033;-66
2022/10/21 09:27:55;;;;;;;6.32;2.25;;;;;;;14.25;87.46;100635.16;5019161;28;20116;-68
2022/10/21 09:30:22;;;;;;;7.30;2.53;;;;;;;14.28;87.04;100642.13;5026251;28;20128;-67
2022/10/21 09:32:49;;;;;;;8.02;2.38;;;;;;;14.34;87.11;100641.00;5025732;28;20029;-66
2022/10/21 09:35:36;;;;;;;6.25;1.85;;;;;;;14.40;86.87;100641.81;5025321;28;20029;-67
2022/10/21 09:38:13;;;;;;;4.30;1.83;;;;;;;14.45;87.30;100633.41;5028219;28;20033;-71
2022/10/21 09:40:38;;;;;;;3.38;1.90;;;;;;;14.49;87.41;100640.16;5023554;28;20034;-67
2022/10/21 09:43:12;;;;;;;5.47;1.90;;;;;;;14.54;87.41;100630.91;5025213;28;20480;-65
2022/10/21 09:45:47;;;;;;;5.70;2.30;;;;;;;14.58;87.14;100643.19;5024310;28;20052;-65
2022/10/21 09:48:18;;;;;;;5.95;2.08;;;;;;;14.60;87.74;100647.38;5029008;28;20137;-62
2022/10/21 09:50:46;;;;;;;4.63;2.47;;;;;;;14.64;87.76;100642.06;5020366;28;20037;-64
2022/10/21 09:53:20;;;;;;;4.75;2.30;;;;;;;14.65;88.67;100638.97;5022724;28;20121;-65
2022/10/21 09:55:49;;;;;;;7.65;2.67;;;;;;;14.77;88.70;100638.63;5024404;28;20029;-70
2022/10/21 09:58:26;;;;;;;7.57;2.92;;;;;;;14.86;88.47;100639.72;5026954;28;20029;-68
2022/10/21 10:00:52;;;;;;;6.85;3.13;;;;;;;14.85;88.47;100649.22;5022227;28;20026;-70
2022/10/21 10:03:41;;;;;;;6.80;3.33;;;;;;;14.87;88.72;100644.19;5026174;28;20033;-65
2022/10/21 10:06:06;;;;;;;6.93;3.78;;;;;;;14.88;89.39;100648.63;5027545;28;20033;-68
2022/10/21 10:08:34;;;;;;;7.60;3.83;;;;;;;14.87;89.67;100644.19;5020662;28;20052;-65
2022/10/21 10:11:08;;;;;;;7.78;4.03;;;;;;;14.90;89.95;100640.00;5022243;28;20061;-66
2022/10/21 10:13:48;;;;;;;7.82;3.70;;;;;;;14.91;90.43;100642.47;5028098;28;20120;-66
2022/10/21 10:16:21;;;;;;;7.47;3.60;;;;;;;14.92;90.38;100658.13;5025013;28;20115;-64
2022/10/21 10:18:47;;;;;;;7.70;4.22;;;;;;;14.93;90.68;100659.81;5017721;28;20079;-69
2022/10/21 10:21:15;;;;;;;7.88;4.07;;;;;;;14.96;90.17;100650.84;5028038;28;20029;-66
2022/10/21 10:23:42;;;;;;;6.93;4.30;;;;;;;15.00;90.85;100658.66;5026869;28;20477;-61
2022/10/21 10:26:16;;;;;;;11.05;4.53;;;;;;;15.05;90.82;100664.19;5020549;28;20040;-68
2022/10/21 10:28:48;;;;;;;9.95;5.00;;;;;;;15.11;91.23;100663.06;5027579;28;20029;-68
2022/10/21 10:31:43;;;;;;;9.07;5.35;;;;;;;15.19;90.91;100656.88;5028091;28;20156;-68
2022/10/21 10:34:19;;;;;;;18.05;5.80;;;;;;;15.26;91.27;100651.78;5014911;28;20069;-70
2022/10/21 10:36:47;;;;;;;9.27;6.25;;;;;;;15.29;90.74;100656.81;5028011;28;20048;-69
2022/10/21 10:39:22;;;;;;;14.40;6.82;;;;;;;15.32;90.10;100659.00;5027538;28;20117;-69
2022/10/21 10:41:50;;;;;;;9.95;7.00;;;;;;;15.37;90.19;100655.38;5017925;28;20017;-68
2022/10/21 10:44:37;;;;;;;10.00;6.13;;;;;;;15.40;89.87;100658.38;5028209;28;20045;-69
2022/10/21 10:47:06;;;;;;;9.75;5.82;;;;;;;15.49;89.26;100658.63;5027354;28;20017;-66
2022/10/21 10:49:43;;;;;;;10.82;5.78;;;;;;;15.57;89.48;100663.59;5024982;28;20060;-62
2022/10/21 10:52:08;;;;;;;10.10;5.53;;;;;;;15.61;89.50;100661.91;5025598;28;20431;-66
2022/10/21 10:54:34;;;;;;;9.82;5.45;;;;;;;15.65;88.31;100673.38;5026114;28;20042;-67
2022/10/21 10:57:04;;;;;;;10.57;5.28;;;;;;;15.74;88.32;100671.63;5020532;28;20081;-64
2022/10/21 10:59:36;;;;;;;8.32;5.05;;;;;;;15.86;88.58;100660.88;5025897;28;20453;-70
2022/10/21 11:02:14;;;;;;;8.68;4.93;;;;;;;16.00;86.44;100658.25;5025027;28;20051;-70
2022/10/21 11:05:02;;;;;;;9.50;5.43;;;;;;;16.13;86.85;100651.13;5026460;28;20044;-71
2022/10/21 11:07:34;;;;;;;13.75;6.13;;;;;;;16.19;86.67;100645.19;5025796;28;20392;-71
2022/10/21 11:10:21;;;;;;;16.17;6.18;;;;;;;16.21;85.97;100636.47;5024202;28;20120;-75
2022/10/21 11:12:47;;;;;;;10.18;6.38;;;;;;;16.26;86.49;100630.81;5021886;28;20026;-73
2022/10/21 11:15:15;;;;;;;9.77;6.50;;;;;;;16.30;85.77;100629.09;5028181;28;20380;-71
2022/10/21 11:17:53;;;;;;;11.45;5.80;;;;;;;16.30;84.72;100625.44;5013577;28;20060;-72
2022/10/21 11:20:33;;;;;;;9.52;5.28;;;;;;;16.35;83.85;100631.00;5022194;28;20040;-73
2022/10/21 11:23:31;;;;;;;6.95;4.85;;;;;;;16.44;84.04;100621.66;5031753;28;20034;-73
2022/10/21 11:26:04;;;;;;;8.52;4.70;;;;;;;16.53;84.35;100632.19;5028244;28;20375;-70
2022/10/21 11:28:35;;;;;;;7.72;4.35;;;;;;;16.60;84.21;100644.72;5030076;28;20025;-76
2022/10/21 11:31:17;;;;;;;5.68;4.15;;;;;;;16.76;83.27;100639.78;5026018;28;20053;-75